PWSweather.com
Personal Weather Stations
Station Observations
KCTCOLEB1
Sandy Brook, Colebrook, CT 06021

Sandy BrookColebrook, CT 06021

Lat: 42.0018, Lon: -73.0825

Elevation: 935

Station Type: Davis Vantage Pro2 + Solar + UV

Latest ConditionsUpdated 4:30:01 PM EDT Friday, May 25, 2018
Currently Today's Max Today's Min Today's Average
Temperature 85.2°F29.6°C 87.5°F30.8°C 46.1°F7.8°C 64.1°F17.8°C
Dew Point 48.4°F9.1°C 56.5°F13.6°C 44.7°F7.1°C 49.4°F9.7°C
Winds 1.2 mph SE1.9 kmh SE 4.6 mph NNE7.4 kmh NNE - 0.8 mph 1.3 kmh
Wind Gusts 3.5 mph5.6 kmh 11.5 mph18.5 kmh - -
Humidity 28% 98% 28% 67%
Pressure 29.78 in1008.5 mb 30.04 in1017.3 mb 29.78 in1008.5 mb -
Hour Temp Dew Point Humidity Winds Wind Gusts Pressure Precip Precip Rate Daily Precip Total
04:30 PM 85.2°F29.6°C 48.4°F9.1°C 28% 1.2 mph SE1.9 kmh SE 3.5 mph5.6 kmh 29.78 in1008.5 mb - 0.00 in0.0 mm 0.00 in0.0 mm
04:20 PM 85.5°F29.7°C 48.7°F9.3°C 28% 1.2 mph ENE1.9 kmh ENE 3.5 mph5.6 kmh 29.79 in1008.8 mb - 0.00 in0.0 mm 0.00 in0.0 mm
04:10 PM 85.3°F29.6°C 49.4°F9.7°C 29% 2.3 mph E3.7 kmh E 3.5 mph5.6 kmh 29.79 in1008.8 mb - 0.00 in0.0 mm 0.00 in0.0 mm
04:00 PM 85.7°F29.8°C 49.8°F9.9°C 29% 4.6 mph ENE7.4 kmh ENE 5.8 mph9.3 kmh 29.80 in1009.1 mb - 0.00 in0.0 mm 0.00 in0.0 mm
03:50 PM 85.7°F29.8°C 49.8°F9.9°C 29% 1.2 mph E1.9 kmh E 2.3 mph3.7 kmh 29.80 in1009.1 mb - 0.00 in0.0 mm 0.00 in0.0 mm
03:40 PM 85.9°F29.9°C 52.6°F11.4°C 32% 2.3 mph SSE3.7 kmh SSE 8.1 mph13.0 kmh 29.81 in1009.5 mb - 0.00 in0.0 mm 0.00 in0.0 mm
03:30 PM 86.4°F30.2°C 52.2°F11.2°C 31% 3.5 mph SSE5.6 kmh SSE 11.5 mph18.5 kmh 29.81 in1009.5 mb - 0.00 in0.0 mm 0.00 in0.0 mm
03:20 PM 86.3°F30.2°C 52.1°F11.2°C 31% 3.5 mph ENE5.6 kmh ENE 11.5 mph18.5 kmh 29.81 in1009.5 mb - 0.00 in0.0 mm 0.00 in0.0 mm
03:10 PM 85.6°F29.8°C 52.4°F11.3°C 32% 2.3 mph NE3.7 kmh NE 3.5 mph5.6 kmh 29.82 in1009.8 mb - 0.00 in0.0 mm 0.00 in0.0 mm
03:00 PM 84.5°F29.2°C 52.2°F11.2°C 33% 1.2 mph N1.9 kmh N 3.5 mph5.6 kmh 29.82 in1009.8 mb - 0.00 in0.0 mm 0.00 in0.0 mm
02:50 PM 84.5°F29.2°C 50.6°F10.3°C 31% 2.3 mph E3.7 kmh E 3.5 mph5.6 kmh 29.82 in1009.8 mb - 0.00 in0.0 mm 0.00 in0.0 mm
02:40 PM 85.0°F29.4°C 53.4°F11.9°C 34% Calm Calm 3.5 mph5.6 kmh 29.83 in1010.2 mb - 0.00 in0.0 mm 0.00 in0.0 mm
02:30 PM 85.1°F29.5°C 51.1°F10.6°C 31% 2.3 mph ENE3.7 kmh ENE 3.5 mph5.6 kmh 29.83 in1010.2 mb - 0.00 in0.0 mm 0.00 in0.0 mm
02:20 PM 84.7°F29.3°C 51.6°F10.9°C 32% 2.3 mph NE3.7 kmh NE 3.5 mph5.6 kmh 29.83 in1010.2 mb - 0.00 in0.0 mm 0.00 in0.0 mm
02:10 PM 85.9°F29.9°C 50.0°F10.0°C 29% 2.3 mph N3.7 kmh N 4.6 mph7.4 kmh 29.84 in1010.5 mb - 0.00 in0.0 mm 0.00 in0.0 mm
02:00 PM 86.2°F30.1°C 51.1°F10.6°C 30% 1.2 mph NNW1.9 kmh NNW 2.3 mph3.7 kmh 29.85 in1010.8 mb - 0.00 in0.0 mm 0.00 in0.0 mm
01:50 PM 87.5°F30.8°C 52.2°F11.2°C 30% 1.2 mph NE1.9 kmh NE 3.5 mph5.6 kmh 29.85 in1010.8 mb - 0.00 in0.0 mm 0.00 in0.0 mm
01:40 PM 85.4°F29.7°C 49.5°F9.7°C 29% Calm Calm 2.3 mph3.7 kmh 29.85 in1010.8 mb - 0.00 in0.0 mm 0.00 in0.0 mm
01:30 PM 85.0°F29.4°C 51.0°F10.6°C 31% 2.3 mph ENE3.7 kmh ENE 3.5 mph5.6 kmh 29.86 in1011.2 mb - 0.00 in0.0 mm 0.00 in0.0 mm
01:20 PM 85.3°F29.6°C 52.1°F11.2°C 32% 4.6 mph NNE7.4 kmh NNE 4.6 mph7.4 kmh 29.86 in1011.2 mb - 0.00 in0.0 mm 0.00 in0.0 mm
01:10 PM 85.6°F29.8°C 53.2°F11.8°C 33% 2.3 mph NE3.7 kmh NE 3.5 mph5.6 kmh 29.86 in1011.2 mb - 0.00 in0.0 mm 0.00 in0.0 mm
01:00 PM 84.5°F29.2°C 52.2°F11.2°C 33% 1.2 mph NNW1.9 kmh NNW 2.3 mph3.7 kmh 29.86 in1011.2 mb - 0.00 in0.0 mm 0.00 in0.0 mm
12:50 PM 84.3°F29.1°C 51.2°F10.7°C 32% 3.5 mph SSE5.6 kmh SSE 3.5 mph5.6 kmh 29.87 in1011.5 mb - 0.00 in0.0 mm 0.00 in0.0 mm
12:40 PM 83.4°F28.6°C 52.9°F11.6°C 35% Calm Calm 1.2 mph1.9 kmh 29.88 in1011.9 mb - 0.00 in0.0 mm 0.00 in0.0 mm
12:30 PM 82.2°F27.9°C 51.1°F10.6°C 34% Calm Calm 3.5 mph5.6 kmh 29.88 in1011.9 mb - 0.00 in0.0 mm 0.00 in0.0 mm
12:20 PM 82.2°F27.9°C 51.0°F10.6°C 34% 3.5 mph SE5.6 kmh SE 3.5 mph5.6 kmh 29.88 in1011.9 mb - 0.00 in0.0 mm 0.00 in0.0 mm
12:10 PM 82.2°F27.9°C 51.0°F10.6°C 34% 1.2 mph E1.9 kmh E 2.3 mph3.7 kmh 29.89 in1012.2 mb - 0.00 in0.0 mm 0.00 in0.0 mm
12:00 PM 82.7°F28.2°C 52.2°F11.2°C 35% 1.2 mph N1.9 kmh N 1.2 mph1.9 kmh 29.90 in1012.5 mb - 0.00 in0.0 mm 0.00 in0.0 mm
11:50 AM 81.6°F27.6°C 52.1°F11.2°C 36% 1.2 mph NNE1.9 kmh NNE 3.5 mph5.6 kmh 29.90 in1012.5 mb - 0.00 in0.0 mm 0.00 in0.0 mm
11:40 AM 80.9°F27.2°C 49.1°F9.5°C 33% 2.3 mph NE3.7 kmh NE 4.6 mph7.4 kmh 29.91 in1012.9 mb - 0.00 in0.0 mm 0.00 in0.0 mm
11:30 AM 80.3°F26.8°C 50.9°F10.5°C 36% 2.3 mph ENE3.7 kmh ENE 3.5 mph5.6 kmh 29.91 in1012.9 mb - 0.00 in0.0 mm 0.00 in0.0 mm
11:20 AM 81.2°F27.3°C 52.4°F11.3°C 37% 1.2 mph NE1.9 kmh NE 3.5 mph5.6 kmh 29.91 in1012.9 mb - 0.00 in0.0 mm 0.00 in0.0 mm
11:10 AM 79.6°F26.4°C 52.5°F11.4°C 39% Calm Calm 2.3 mph3.7 kmh 29.91 in1012.9 mb - 0.00 in0.0 mm 0.00 in0.0 mm
11:00 AM 78.8°F26.0°C 51.1°F10.6°C 38% 2.3 mph NNE3.7 kmh NNE 3.5 mph5.6 kmh 29.92 in1013.2 mb - 0.00 in0.0 mm 0.00 in0.0 mm
10:50 AM 79.1°F26.2°C 54.7°F12.6°C 43% Calm Calm 3.5 mph5.6 kmh 29.93 in1013.5 mb - 0.00 in0.0 mm 0.00 in0.0 mm
10:40 AM 77.7°F25.4°C 53.4°F11.9°C 43% 1.2 mph N1.9 kmh N 2.3 mph3.7 kmh 29.93 in1013.5 mb - 0.00 in0.0 mm 0.00 in0.0 mm
10:30 AM 76.7°F24.8°C 52.5°F11.4°C 43% 2.3 mph N3.7 kmh N 3.5 mph5.6 kmh 29.94 in1013.9 mb - 0.00 in0.0 mm 0.00 in0.0 mm
10:20 AM 76.4°F24.7°C 52.2°F11.2°C 43% 2.3 mph E3.7 kmh E 3.5 mph5.6 kmh 29.94 in1013.9 mb - 0.00 in0.0 mm 0.00 in0.0 mm
10:10 AM 75.3°F24.1°C 52.5°F11.4°C 45% 1.2 mph NE1.9 kmh NE 2.3 mph3.7 kmh 29.95 in1014.2 mb - 0.00 in0.0 mm 0.00 in0.0 mm
10:00 AM 74.0°F23.3°C 52.5°F11.4°C 47% 1.2 mph E1.9 kmh E 3.5 mph5.6 kmh 29.95 in1014.2 mb - 0.00 in0.0 mm 0.00 in0.0 mm
09:50 AM 73.7°F23.2°C 53.9°F12.2°C 50% 2.3 mph NE3.7 kmh NE 3.5 mph5.6 kmh 29.95 in1014.2 mb - 0.00 in0.0 mm 0.00 in0.0 mm
09:40 AM 72.9°F22.7°C 53.7°F12.1°C 51% Calm Calm 2.3 mph3.7 kmh 29.95 in1014.2 mb - 0.00 in0.0 mm 0.00 in0.0 mm
09:30 AM 71.8°F22.1°C 56.2°F13.4°C 58% 1.2 mph S1.9 kmh S 3.5 mph5.6 kmh 29.96 in1014.6 mb - 0.00 in0.0 mm 0.00 in0.0 mm
09:20 AM 70.7°F21.5°C 54.7°F12.6°C 57% 2.3 mph SE3.7 kmh SE 2.3 mph3.7 kmh 29.96 in1014.6 mb - 0.00 in0.0 mm 0.00 in0.0 mm
09:10 AM 69.0°F20.6°C 55.0°F12.8°C 61% 1.2 mph NNE1.9 kmh NNE 2.3 mph3.7 kmh 29.96 in1014.6 mb - 0.00 in0.0 mm 0.00 in0.0 mm
09:00 AM 66.8°F19.3°C 54.3°F12.4°C 64% 1.2 mph NNE1.9 kmh NNE 3.5 mph5.6 kmh 29.96 in1014.6 mb - 0.00 in0.0 mm 0.00 in0.0 mm
08:50 AM 63.9°F17.7°C 56.5°F13.6°C 77% Calm Calm -- 29.97 in1014.9 mb - 0.00 in0.0 mm 0.00 in0.0 mm
08:40 AM 62.1°F16.7°C 55.9°F13.3°C 80% Calm Calm 1.2 mph1.9 kmh 29.97 in1014.9 mb - 0.00 in0.0 mm 0.00 in0.0 mm
08:30 AM 59.9°F15.5°C 55.0°F12.8°C 84% Calm Calm -- 29.97 in1014.9 mb - 0.00 in0.0 mm 0.00 in0.0 mm
08:20 AM 57.0°F13.9°C 55.6°F13.1°C 95% Calm Calm -- 29.98 in1015.2 mb - 0.00 in0.0 mm 0.00 in0.0 mm
08:10 AM 55.0°F12.8°C 54.5°F12.5°C 98% 1.2 mph N1.9 kmh N 1.2 mph1.9 kmh 29.98 in1015.2 mb - 0.00 in0.0 mm 0.00 in0.0 mm
08:00 AM 53.4°F11.9°C 52.9°F11.6°C 98% 1.2 mph NE1.9 kmh NE 3.5 mph5.6 kmh 29.98 in1015.2 mb - 0.00 in0.0 mm 0.00 in0.0 mm
07:50 AM 52.0°F11.1°C 51.2°F10.7°C 97% Calm Calm -- 29.98 in1015.2 mb - 0.00 in0.0 mm 0.00 in0.0 mm
07:40 AM 50.6°F10.3°C 49.8°F9.9°C 97% Calm Calm -- 29.98 in1015.2 mb - 0.00 in0.0 mm 0.00 in0.0 mm
07:30 AM 49.7°F9.8°C 48.9°F9.4°C 97% Calm Calm -- 29.98 in1015.2 mb - 0.00 in0.0 mm 0.00 in0.0 mm
07:20 AM 48.6°F9.2°C 47.8°F8.8°C 97% Calm Calm -- 29.99 in1015.6 mb - 0.00 in0.0 mm 0.00 in0.0 mm
07:10 AM 48.0°F8.9°C 46.9°F8.3°C 96% Calm Calm -- 29.99 in1015.6 mb - 0.00 in0.0 mm 0.00 in0.0 mm
07:00 AM 47.4°F8.6°C 46.3°F7.9°C 96% Calm Calm -- 29.99 in1015.6 mb - 0.00 in0.0 mm 0.00 in0.0 mm
06:50 AM 47.0°F8.3°C 45.9°F7.7°C 96% Calm Calm -- 29.99 in1015.6 mb - 0.00 in0.0 mm 0.00 in0.0 mm
06:40 AM 46.7°F8.2°C 45.6°F7.6°C 96% Calm Calm -- 29.99 in1015.6 mb - 0.00 in0.0 mm 0.00 in0.0 mm
06:30 AM 46.5°F8.1°C 45.1°F7.3°C 95% Calm Calm -- 29.99 in1015.6 mb - 0.00 in0.0 mm 0.00 in0.0 mm
06:20 AM 46.3°F7.9°C 45.0°F7.2°C 95% Calm Calm -- 29.99 in1015.6 mb - 0.00 in0.0 mm 0.00 in0.0 mm
06:10 AM 46.3°F7.9°C 44.9°F7.2°C 95% Calm Calm -- 29.99 in1015.6 mb - 0.00 in0.0 mm 0.00 in0.0 mm
06:00 AM 46.1°F7.8°C 44.8°F7.1°C 95% Calm Calm -- 29.99 in1015.6 mb - 0.00 in0.0 mm 0.00 in0.0 mm
05:50 AM 46.1°F7.8°C 44.7°F7.1°C 95% Calm Calm -- 29.99 in1015.6 mb - 0.00 in0.0 mm 0.00 in0.0 mm
05:40 AM 46.1°F7.8°C 44.7°F7.1°C 95% Calm Calm -- 30.00 in1015.9 mb - 0.00 in0.0 mm 0.00 in0.0 mm
05:30 AM 46.1°F7.8°C 44.7°F7.1°C 95% Calm Calm -- 29.99 in1015.6 mb - 0.00 in0.0 mm 0.00 in0.0 mm
05:20 AM 46.2°F7.9°C 44.8°F7.1°C 95% Calm Calm -- 30.00 in1015.9 mb - 0.00 in0.0 mm 0.00 in0.0 mm
05:10 AM 46.2°F7.9°C 44.8°F7.1°C 95% Calm Calm -- 30.00 in1015.9 mb - 0.00 in0.0 mm 0.00 in0.0 mm
05:00 AM 46.3°F7.9°C 44.7°F7.1°C 94% Calm Calm -- 30.00 in1015.9 mb - 0.00 in0.0 mm 0.00 in0.0 mm
04:50 AM 46.4°F8.0°C 44.8°F7.1°C 94% Calm Calm -- 30.00 in1015.9 mb - 0.00 in0.0 mm 0.00 in0.0 mm
04:40 AM 46.5°F8.1°C 44.9°F7.2°C 94% Calm Calm -- 30.00 in1015.9 mb - 0.00 in0.0 mm 0.00 in0.0 mm
04:30 AM 46.5°F8.1°C 44.9°F7.2°C 94% Calm Calm -- 30.00 in1015.9 mb - 0.00 in0.0 mm 0.00 in0.0 mm
04:20 AM 46.6°F8.1°C 45.0°F7.2°C 94% Calm Calm -- 30.00 in1015.9 mb - 0.00 in0.0 mm 0.00 in0.0 mm
04:10 AM 46.7°F8.2°C 44.8°F7.1°C 93% Calm Calm -- 30.00 in1015.9 mb - 0.00 in0.0 mm 0.00 in0.0 mm
04:00 AM 46.9°F8.3°C 45.0°F7.2°C 93% Calm Calm -- 30.00 in1015.9 mb - 0.00 in0.0 mm 0.00 in0.0 mm
03:50 AM 47.1°F8.4°C 45.5°F7.5°C 94% Calm Calm -- 30.00 in1015.9 mb - 0.00 in0.0 mm 0.00 in0.0 mm
03:40 AM 47.2°F8.4°C 45.3°F7.4°C 93% Calm Calm -- 30.00 in1015.9 mb - 0.00 in0.0 mm 0.00 in0.0 mm
03:30 AM 47.3°F8.5°C 45.4°F7.4°C 93% Calm Calm -- 30.00 in1015.9 mb - 0.00 in0.0 mm 0.00 in0.0 mm
03:20 AM 47.3°F8.5°C 45.4°F7.4°C 93% Calm Calm -- 30.00 in1015.9 mb - 0.00 in0.0 mm 0.00 in0.0 mm
03:10 AM 47.5°F8.6°C 45.6°F7.6°C 93% Calm Calm -- 30.01 in1016.3 mb - 0.00 in0.0 mm 0.00 in0.0 mm
03:00 AM 47.6°F8.7°C 45.4°F7.4°C 92% Calm Calm -- 30.01 in1016.3 mb - 0.00 in0.0 mm 0.00 in0.0 mm
02:50 AM 47.9°F8.8°C 45.7°F7.6°C 92% Calm Calm -- 30.01 in1016.3 mb - 0.00 in0.0 mm 0.00 in0.0 mm
02:40 AM 48.1°F8.9°C 45.9°F7.7°C 92% Calm Calm -- 30.01 in1016.3 mb - 0.00 in0.0 mm 0.00 in0.0 mm
02:30 AM 48.3°F9.1°C 46.1°F7.8°C 92% Calm Calm -- 30.02 in1016.6 mb - 0.00 in0.0 mm 0.00 in0.0 mm
02:20 AM 48.6°F9.2°C 46.1°F7.8°C 91% Calm Calm -- 30.02 in1016.6 mb - 0.00 in0.0 mm 0.00 in0.0 mm
02:10 AM 48.8°F9.3°C 46.3°F7.9°C 91% Calm Calm -- 30.02 in1016.6 mb - 0.00 in0.0 mm 0.00 in0.0 mm
02:00 AM 49.0°F9.4°C 46.5°F8.1°C 91% Calm Calm -- 30.02 in1016.6 mb - 0.00 in0.0 mm 0.00 in0.0 mm
01:50 AM 49.4°F9.7°C 46.6°F8.1°C 90% Calm Calm -- 30.02 in1016.6 mb - 0.00 in0.0 mm 0.00 in0.0 mm
01:40 AM 49.7°F9.8°C 46.9°F8.3°C 90% Calm Calm -- 30.02 in1016.6 mb - 0.00 in0.0 mm 0.00 in0.0 mm
01:30 AM 50.1°F10.1°C 47.3°F8.5°C 90% Calm Calm -- 30.02 in1016.6 mb - 0.00 in0.0 mm 0.00 in0.0 mm
01:20 AM 50.3°F10.2°C 47.5°F8.6°C 90% Calm Calm -- 30.03 in1016.9 mb - 0.00 in0.0 mm 0.00 in0.0 mm
01:10 AM 50.5°F10.3°C 47.7°F8.7°C 90% Calm Calm -- 30.03 in1016.9 mb - 0.00 in0.0 mm 0.00 in0.0 mm
01:00 AM 50.7°F10.4°C 47.6°F8.7°C 89% Calm Calm -- 30.03 in1016.9 mb - 0.00 in0.0 mm 0.00 in0.0 mm
12:50 AM 51.0°F10.6°C 47.9°F8.8°C 89% Calm Calm -- 30.03 in1016.9 mb - 0.00 in0.0 mm 0.00 in0.0 mm
12:40 AM 51.1°F10.6°C 48.0°F8.9°C 89% Calm Calm -- 30.04 in1017.3 mb - 0.00 in0.0 mm 0.00 in0.0 mm
12:30 AM 51.4°F10.8°C 48.2°F9.0°C 89% Calm Calm -- 30.04 in1017.3 mb - 0.00 in0.0 mm 0.00 in0.0 mm
12:20 AM 51.7°F10.9°C 48.0°F8.9°C 87% Calm Calm -- 30.04 in1017.3 mb - 0.00 in0.0 mm 0.00 in0.0 mm
12:10 AM 52.1°F11.2°C 48.3°F9.1°C 87% Calm Calm -- 30.04 in1017.3 mb - 0.00 in0.0 mm 0.00 in0.0 mm
12:00 AM 52.4°F11.3°C 48.3°F9.1°C 86% Calm Calm -- 30.04 in1017.3 mb - 0.00 in0.0 mm 0.00 in0.0 mm